Time;durP1;ratioP1;P1;durP2;ratioP2;P2;SDS_P1;SDS_P2;PMS_P1;PMS_P2;Temp;Humidity;BMP_temperature;BMP_pressure;BME280_temperature;BME280_humidity;BME280_pressure;Samples;Min_cycle;Max_cycle;Signal;HPM_P1;HPM_P2
2024/01/25 00:01:22;;;;;;;13.50;4.50;;;;;;;5.65;61.52;100098.16;7681400;32;37205;-85
2024/01/25 00:05:38;;;;;;;14.50;4.55;;;;;;;5.78;61.37;100091.75;7683509;32;39010;-86
2024/01/25 00:09:55;;;;;;;11.75;3.92;;;;;;;5.81;61.17;100101.25;7684641;32;39727;-86
2024/01/25 00:14:12;;;;;;;13.65;3.62;;;;;;;6.03;60.88;100098.03;7694461;32;38481;-85
2024/01/25 00:18:29;;;;;;;13.18;3.80;;;;;;;6.17;59.94;100094.03;7711116;32;38084;-85
2024/01/25 00:22:46;;;;;;;10.82;3.90;;;;;;;6.18;59.67;100093.00;7711105;32;39391;-84
2024/01/25 00:27:02;;;;;;;11.80;4.20;;;;;;;6.46;58.57;100080.59;7710956;32;40822;-86
2024/01/25 00:31:19;;;;;;;10.02;3.80;;;;;;;6.10;59.23;100082.50;7710883;32;37991;-86
2024/01/25 00:35:35;;;;;;;11.93;3.92;;;;;;;6.44;58.48;100080.03;7710847;32;37696;-85
2024/01/25 00:39:53;;;;;;;15.40;4.07;;;;;;;6.38;57.98;100085.34;7710398;32;40180;-86
2024/01/25 00:44:09;;;;;;;14.10;4.53;;;;;;;6.38;58.35;100087.19;7708724;32;41044;-86
2024/01/25 00:48:26;;;;;;;17.30;4.87;;;;;;;6.46;57.78;100080.59;7710938;32;37869;-86
2024/01/25 00:52:43;;;;;;;18.70;5.22;;;;;;;6.31;57.98;100092.75;7693761;32;37990;-86
2024/01/25 00:57:00;;;;;;;17.23;4.12;;;;;;;6.40;57.68;100082.38;7683765;32;39174;-83
2024/01/25 01:01:19;;;;;;;10.52;3.50;;;;;;;6.42;57.50;100093.00;7683600;32;40031;-85
2024/01/25 01:05:36;;;;;;;12.75;3.83;;;;;;;6.48;57.22;100095.53;7694697;32;38526;-85
2024/01/25 01:09:52;;;;;;;12.40;3.83;;;;;;;6.35;57.11;100096.62;7685312;32;37922;-85
2024/01/25 01:14:09;;;;;;;13.35;3.25;;;;;;;6.52;56.70;100101.31;7686463;32;39023;-84
2024/01/25 01:18:26;;;;;;;12.80;3.97;;;;;;;6.56;56.74;100113.34;7686571;32;40653;-86
2024/01/25 01:22:42;;;;;;;11.50;3.92;;;;;;;6.77;55.94;100118.13;7686416;32;37872;-86
2024/01/25 01:26:59;;;;;;;10.07;3.00;;;;;;;7.06;55.14;100110.03;7686517;32;37304;-86
2024/01/25 01:31:15;;;;;;;7.12;3.10;;;;;;;6.55;56.10;100112.53;7686544;32;40011;-86
2024/01/25 01:35:32;;;;;;;14.38;3.30;;;;;;;6.91;55.33;100110.53;7703618;32;40338;-86
2024/01/25 01:39:48;;;;;;;13.07;3.47;;;;;;;7.05;54.73;100111.09;7712927;32;37816;-86
2024/01/25 01:44:06;;;;;;;11.68;3.33;;;;;;;7.11;54.36;100115.56;7713025;32;37380;-85
2024/01/25 01:48:22;;;;;;;8.32;2.37;;;;;;;7.01;54.56;100114.53;7712935;32;39446;-85
2024/01/25 01:52:39;;;;;;;8.10;3.00;;;;;;;6.65;55.53;100120.03;7712962;32;40992;-86
2024/01/25 01:56:56;;;;;;;8.02;2.95;;;;;;;6.87;55.20;100108.56;7712818;32;38684;-86
2024/01/25 02:01:13;;;;;;;10.90;3.45;;;;;;;6.50;55.98;100116.97;7707763;32;166005;-86
2024/01/25 02:05:30;;;;;;;10.43;3.20;;;;;;;6.31;57.04;100102.75;7724101;32;39445;-85
2024/01/25 02:09:46;;;;;;;11.30;3.90;;;;;;;6.21;57.01;100103.34;7712696;32;40821;-85
2024/01/25 02:14:03;;;;;;;7.93;3.70;;;;;;;6.27;57.13;100098.88;7711892;32;38671;-89
2024/01/25 02:18:19;;;;;;;17.77;3.78;;;;;;;6.39;56.61;100092.38;7712834;32;37777;-85
2024/01/25 02:22:35;;;;;;;10.57;3.53;;;;;;;6.74;55.83;100090.69;7711128;32;39994;-85
2024/01/25 02:26:52;;;;;;;10.00;3.55;;;;;;;7.03;54.90;100086.12;7692024;32;39926;-84
2024/01/25 02:31:10;;;;;;;14.00;3.20;;;;;;;7.11;54.40;100088.47;7685869;32;39374;-84
2024/01/25 02:35:26;;;;;;;10.98;3.22;;;;;;;7.02;54.79;100095.34;7685662;32;37240;-85
2024/01/25 02:39:44;;;;;;;8.75;2.90;;;;;;;7.27;54.09;100080.63;7686502;32;40077;-85
2024/01/25 02:44:01;;;;;;;10.13;3.35;;;;;;;6.90;54.78;100086.41;7685725;32;40126;-85
2024/01/25 02:48:18;;;;;;;8.45;2.90;;;;;;;6.84;55.43;100092.78;7685506;32;37859;-85
2024/01/25 02:52:34;;;;;;;16.75;3.70;;;;;;;6.96;54.71;100086.25;7685540;32;37884;-86
2024/01/25 02:56:51;;;;;;;13.93;3.25;;;;;;;6.87;54.63;100090.41;7685538;32;40118;-85
2024/01/25 03:01:07;;;;;;;15.45;3.17;;;;;;;6.87;54.56;100090.41;7685461;32;39667;-84
2024/01/25 03:05:24;;;;;;;13.88;3.87;;;;;;;7.19;53.61;100091.84;7685232;32;38078;-84
2024/01/25 03:09:40;;;;;;;10.82;2.87;;;;;;;6.82;54.82;100095.72;7685472;32;37415;-84
2024/01/25 03:13:57;;;;;;;7.85;2.78;;;;;;;6.96;54.02;100097.09;7685088;32;39313;-85
2024/01/25 03:18:13;;;;;;;9.60;3.00;;;;;;;7.18;53.91;100104.59;7685435;32;41256;-85
2024/01/25 03:22:30;;;;;;;12.75;3.28;;;;;;;7.33;53.56;100102.16;7698953;32;37865;-84
2024/01/25 03:26:46;;;;;;;15.68;3.20;;;;;;;7.29;53.49;100094.75;7711844;32;37895;-84
2024/01/25 03:31:03;;;;;;;10.48;3.22;;;;;;;7.51;52.39;100094.87;7711262;32;39476;-84
2024/01/25 03:35:19;;;;;;;11.90;3.05;;;;;;;7.39;53.71;100094.94;7711618;32;40626;-85
2024/01/25 03:39:36;;;;;;;7.20;2.72;;;;;;;7.81;52.94;100086.47;7711597;32;37902;-83
2024/01/25 03:43:52;;;;;;;11.15;3.25;;;;;;;7.70;53.39;100095.50;7711609;32;37934;-85
2024/01/25 03:48:09;;;;;;;9.15;3.33;;;;;;;7.81;53.60;100097.31;7711885;32;37690;-84
2024/01/25 03:52:25;;;;;;;14.25;3.53;;;;;;;8.10;52.91;100099.94;7711520;32;40771;-85
2024/01/25 03:56:42;;;;;;;8.52;3.28;;;;;;;7.69;53.67;100082.97;7711296;32;37871;-84
2024/01/25 04:00:58;;;;;;;14.90;4.22;;;;;;;7.89;53.59;100093.34;7722839;32;37844;-84
2024/01/25 04:05:15;;;;;;;10.80;3.30;;;;;;;7.83;53.75;100088.91;7711385;32;39332;-84
2024/01/25 04:09:31;;;;;;;11.80;3.12;;;;;;;7.37;55.15;100090.84;7701775;32;40809;-84
2024/01/25 04:13:48;;;;;;;16.58;3.78;;;;;;;7.63;53.91;100083.97;7685236;32;38510;-85
2024/01/25 04:18:04;;;;;;;11.38;3.08;;;;;;;7.18;55.31;100098.34;7684607;32;37251;-85
2024/01/25 04:22:21;;;;;;;12.00;3.97;;;;;;;7.55;54.46;100097.94;7684733;32;40120;-85
2024/01/25 04:26:37;;;;;;;12.50;3.70;;;;;;;7.14;55.61;100093.41;7684441;32;39794;-85
2024/01/25 04:30:54;;;;;;;9.63;3.00;;;;;;;6.88;55.93;100100.22;7684229;32;37648;-85
2024/01/25 04:35:10;;;;;;;14.48;4.03;;;;;;;7.01;55.30;100092.88;7684268;32;37263;-84
2024/01/25 04:39:27;;;;;;;10.27;3.20;;;;;;;7.02;55.55;100103.47;7684181;32;39405;-84
2024/01/25 04:43:43;;;;;;;14.55;3.78;;;;;;;7.46;54.02;100101.03;7682860;32;40774;-85
2024/01/25 04:48:00;;;;;;;7.97;3.15;;;;;;;7.59;53.53;100110.78;7684046;32;38563;-85
2024/01/25 04:52:16;;;;;;;10.10;3.30;;;;;;;7.52;53.35;100108.22;7683930;32;37983;-85
2024/01/25 04:56:33;;;;;;;9.77;3.17;;;;;;;7.67;53.15;100106.81;7683820;32;39417;-85
2024/01/25 05:00:50;;;;;;;13.60;3.70;;;;;;;7.22;53.68;100100.31;7683708;32;39927;-84
2024/01/25 05:05:07;;;;;;;12.40;4.15;;;;;;;7.25;53.66;100099.03;7684443;32;36992;-85
2024/01/25 05:09:24;;;;;;;9.63;3.47;;;;;;;7.66;52.64;100106.00;7683217;32;37920;-84
2024/01/25 05:13:40;;;;;;;13.43;3.22;;;;;;;6.98;54.35;100110.41;7683368;32;39375;-84
2024/01/25 05:17:56;;;;;;;14.87;3.95;;;;;;;6.68;55.49;100106.00;7683273;32;40035;-85
2024/01/25 05:22:13;;;;;;;11.82;3.72;;;;;;;6.53;55.65;100116.50;7683085;32;38641;-85
2024/01/25 05:26:29;;;;;;;11.23;2.62;;;;;;;6.59;55.50;100121.00;7683157;32;36985;-84
2024/01/25 05:30:46;;;;;;;14.87;3.25;;;;;;;7.02;54.74;100119.72;7682979;32;40059;-85
2024/01/25 05:35:03;;;;;;;10.88;3.62;;;;;;;7.29;53.79;100119.16;7682684;32;40017;-85
2024/01/25 05:39:20;;;;;;;8.13;3.58;;;;;;;7.00;54.65;100112.88;7682709;32;37879;-85
2024/01/25 05:43:38;;;;;;;12.15;3.78;;;;;;;7.27;53.82;100116.69;7704778;32;37162;-85
2024/01/25 05:47:54;;;;;;;15.02;3.75;;;;;;;7.33;53.94;100120.34;7709379;32;40053;-85
2024/01/25 05:52:11;;;;;;;11.68;3.75;;;;;;;7.30;53.99;100124.34;7707395;32;40209;-83
2024/01/25 05:56:27;;;;;;;15.15;4.60;;;;;;;7.44;53.71;100124.87;7700599;32;38690;-85
2024/01/25 06:00:43;;;;;;;14.38;4.35;;;;;;;6.81;55.43;100114.94;7686203;32;37179;-84
2024/01/25 06:05:00;;;;;;;14.27;4.40;;;;;;;6.30;56.97;100110.06;7686293;32;39304;-85
2024/01/25 06:09:17;;;;;;;10.50;3.70;;;;;;;6.07;57.67;100113.59;7686111;32;41060;-87
2024/01/25 06:13:36;;;;;;;16.87;4.37;;;;;;;6.30;57.06;100099.22;7686022;32;37407;-85
2024/01/25 06:17:53;;;;;;;12.15;3.92;;;;;;;6.17;57.44;100094.03;7685808;32;37975;-85
2024/01/25 06:22:10;;;;;;;20.27;3.85;;;;;;;6.34;57.08;100084.13;7685935;32;40045;-86
2024/01/25 06:26:27;;;;;;;14.23;3.95;;;;;;;6.43;57.15;100070.25;7685869;32;39891;-86
2024/01/25 06:30:43;;;;;;;11.10;3.53;;;;;;;6.22;58.26;100072.50;7685871;32;37828;-87
2024/01/25 06:35:00;;;;;;;12.85;3.80;;;;;;;6.36;58.62;100065.78;7685804;32;36919;-86
2024/01/25 06:39:16;;;;;;;11.77;3.47;;;;;;;6.33;58.83;100060.00;7685971;32;39285;-85
2024/01/25 06:43:33;;;;;;;12.90;3.53;;;;;;;6.75;58.16;100051.69;7698138;32;40222;-85
2024/01/25 06:47:49;;;;;;;9.73;3.53;;;;;;;6.64;58.50;100044.41;7709776;32;37830;-86
2024/01/25 06:52:06;;;;;;;12.93;3.15;;;;;;;6.65;58.30;100051.47;7685684;32;37695;-86
2024/01/25 06:56:22;;;;;;;11.32;3.37;;;;;;;6.81;57.77;100045.28;7685552;32;39327;-86
2024/01/25 07:00:39;;;;;;;15.10;3.40;;;;;;;6.62;58.09;100047.34;7688160;32;39951;-85
2024/01/25 07:04:55;;;;;;;8.80;3.95;;;;;;;7.08;57.04;100034.72;7687824;32;38469;-84
2024/01/25 07:09:12;;;;;;;11.70;3.72;;;;;;;6.99;56.84;100035.34;7684913;32;37876;-86
2024/01/25 07:13:29;;;;;;;8.55;3.35;;;;;;;6.91;57.11;100034.66;7693276;32;39552;-85
2024/01/25 07:17:45;;;;;;;11.20;3.85;;;;;;;7.21;55.90;100038.19;7685170;32;39888;-84
2024/01/25 07:22:02;;;;;;;12.50;3.85;;;;;;;6.88;56.62;100050.56;7685175;32;38555;-86
2024/01/25 07:26:22;;;;;;;9.93;3.28;;;;;;;7.62;54.43;100044.31;7685308;32;37354;-86
2024/01/25 07:30:38;;;;;;;14.25;3.72;;;;;;;7.43;54.21;100057.28;7685286;32;39984;-86
2024/01/25 07:34:55;;;;;;;9.38;3.30;;;;;;;7.64;53.92;100077.47;7687829;32;40823;-86
2024/01/25 07:39:11;;;;;;;21.70;5.10;;;;;;;7.46;53.50;100073.09;7723029;32;37670;-83
2024/01/25 07:43:28;;;;;;;29.27;7.35;;;;;;;7.74;53.15;100066.78;7692125;32;37112;-83
2024/01/25 07:47:44;;;;;;;23.90;6.32;;;;;;;7.98;51.92;100070.16;7684930;32;39416;-85
2024/01/25 07:52:01;;;;;;;13.62;3.92;;;;;;;7.91;52.33;100061.34;7685090;32;40313;-85
2024/01/25 07:56:17;;;;;;;12.60;3.70;;;;;;;7.46;52.33;100062.25;7684604;32;37840;-78
2024/01/25 08:00:33;;;;;;;15.43;4.05;;;;;;;8.12;51.78;100059.75;7684803;32;37760;-82
2024/01/25 08:04:50;;;;;;;11.27;4.00;;;;;;;7.91;51.20;100069.50;7700443;32;39598;-84
2024/01/25 08:09:08;;;;;;;8.63;3.42;;;;;;;8.00;50.92;100067.19;7711326;32;39919;-84
2024/01/25 08:24:05;;;;;;;13.05;4.07;;;;;;;8.34;50.57;100053.56;7805447;32;215812;-84
2024/01/25 08:28:22;;;;;;;10.82;2.85;;;;;;;8.34;50.57;100053.56;7812705;32;39651;-85
2024/01/25 08:32:38;;;;;;;16.40;3.92;;;;;;;7.87;51.78;100052.88;7812664;32;38802;-84
2024/01/25 08:36:54;;;;;;;8.45;3.40;;;;;;;8.01;51.56;100057.97;7812944;32;36824;-85
2024/01/25 08:41:11;;;;;;;9.52;3.37;;;;;;;7.56;52.83;100061.59;7812546;32;39105;-84
2024/01/25 08:45:27;;;;;;;10.20;3.10;;;;;;;8.35;51.23;100050.59;7812629;32;38901;-84
2024/01/25 08:49:44;;;;;;;14.68;3.20;;;;;;;7.67;52.87;100056.06;7812457;32;38421;-84
2024/01/25 08:54:00;;;;;;;14.30;3.47;;;;;;;8.26;52.33;100061.09;7812482;32;37712;-85
2024/01/25 08:58:17;;;;;;;11.02;2.87;;;;;;;8.33;51.38;100068.22;7812343;32;38993;-85
2024/01/25 09:02:33;;;;;;;15.40;4.05;;;;;;;8.07;51.44;100057.81;7812228;32;40865;-84
2024/01/25 09:06:50;;;;;;;16.98;4.50;;;;;;;8.07;51.73;100065.13;7812179;32;37621;-85
2024/01/25 09:11:06;;;;;;;19.42;3.60;;;;;;;8.53;51.18;100060.38;7812147;32;36957;-85
2024/01/25 09:15:23;;;;;;;9.48;3.28;;;;;;;8.54;51.29;100058.50;7812126;32;39067;-82
2024/01/25 09:19:39;;;;;;;13.40;3.92;;;;;;;9.02;50.57;100071.31;7812148;32;40621;-85
2024/01/25 09:23:56;;;;;;;11.48;3.75;;;;;;;9.37;49.76;100070.03;7811860;32;38687;-84
2024/01/25 09:28:12;;;;;;;14.65;5.18;;;;;;;9.48;49.63;100057.34;7812013;32;37132;-86
2024/01/25 09:32:29;;;;;;;11.10;3.40;;;;;;;9.62;48.94;100071.37;7806696;32;39129;-85
2024/01/25 09:36:46;;;;;;;14.98;5.30;;;;;;;9.48;48.55;100070.16;7793656;32;40572;-85
2024/01/25 09:41:02;;;;;;;7.95;3.70;;;;;;;9.72;49.09;100076.91;7793465;32;38922;-86
2024/01/25 09:45:20;;;;;;;14.38;3.47;;;;;;;9.63;48.02;100086.62;7764011;32;36646;-81
2024/01/25 09:49:37;;;;;;;11.48;3.20;;;;;;;10.14;47.19;100089.78;7791015;32;39375;-85
2024/01/25 09:53:55;;;;;;;12.50;3.75;;;;;;;9.51;47.37;100092.22;7793550;32;39601;-86
2024/01/25 09:58:12;;;;;;;14.10;3.12;;;;;;;9.51;48.97;100124.06;7779629;32;38508;-85
2024/01/25 10:02:28;;;;;;;12.43;3.40;;;;;;;10.27;45.94;100106.75;7779216;32;37001;-85
2024/01/25 10:06:44;;;;;;;10.55;3.03;;;;;;;10.36;45.48;100097.03;7766182;32;39890;-86
2024/01/25 10:11:01;;;;;;;12.57;3.40;;;;;;;10.51;44.47;100094.37;7765094;32;39989;-85
2024/01/25 10:15:17;;;;;;;11.95;3.08;;;;;;;10.52;45.24;100090.59;7751618;32;37712;-84
2024/01/25 10:19:34;;;;;;;13.07;3.22;;;;;;;10.48;43.67;100108.53;7771697;32;37648;-85
2024/01/25 10:23:53;;;;;;;12.30;3.05;;;;;;;11.26;42.95;100096.91;7759146;32;39198;-86
2024/01/25 10:28:12;;;;;;;13.90;3.08;;;;;;;11.05;43.62;100097.91;7792942;32;40958;-84
2024/01/25 10:32:29;;;;;;;18.17;3.40;;;;;;;10.87;43.39;100089.13;7792932;32;37852;-85
2024/01/25 10:36:46;;;;;;;9.00;3.10;;;;;;;11.16;43.47;100074.19;7779040;32;37851;-84
2024/01/25 10:41:04;;;;;;;9.25;2.83;;;;;;;11.51;43.00;100084.37;7784573;32;39213;-86
2024/01/25 10:45:21;;;;;;;12.20;2.85;;;;;;;11.02;42.72;100066.53;7763768;32;40753;-86
2024/01/25 10:49:37;;;;;;;12.75;3.45;;;;;;;10.78;43.45;100058.00;7773913;32;38025;-86
2024/01/25 10:53:54;;;;;;;12.35;4.03;;;;;;;11.47;42.67;100075.09;7765500;32;37564;-86
2024/01/25 10:58:13;;;;;;;11.88;2.53;;;;;;;10.98;42.92;100070.06;7765526;32;39894;-85
2024/01/25 11:02:30;;;;;;;8.55;2.62;;;;;;;11.05;41.42;100082.34;7766315;32;39632;-84
2024/01/25 11:06:47;;;;;;;11.85;3.12;;;;;;;11.31;41.72;100062.50;7773469;32;38082;-82
2024/01/25 11:11:08;;;;;;;16.00;5.05;;;;;;;11.16;40.97;100055.09;7765393;32;37767;-84
2024/01/25 11:15:37;;;;;;;13.60;4.28;;;;;;;11.37;41.42;100056.78;7772261;32;39104;-85
2024/01/25 11:19:53;;;;;;;11.68;3.15;;;;;;;11.45;40.82;100058.16;7786513;32;40525;-83
2024/01/25 11:24:15;;;;;;;11.85;3.00;;;;;;;10.95;42.23;100059.69;7784018;32;37991;-84
2024/01/25 11:28:31;;;;;;;11.18;3.40;;;;;;;11.40;41.47;100030.84;7792481;32;38276;-84
2024/01/25 11:32:48;;;;;;;10.05;2.60;;;;;;;11.91;40.83;100041.81;7790863;32;38912;-83
2024/01/25 11:37:05;;;;;;;17.10;3.30;;;;;;;11.73;40.87;100036.87;7791799;32;40803;-85
2024/01/25 11:41:21;;;;;;;9.98;3.30;;;;;;;11.42;41.54;100050.53;7791902;32;38107;-86
2024/01/25 11:45:42;;;;;;;9.98;3.12;;;;;;;11.56;41.20;100059.81;7792103;32;37576;-86
2024/01/25 11:49:59;;;;;;;9.15;2.42;;;;;;;11.71;40.19;100047.25;7792227;32;39624;-85
2024/01/25 11:54:16;;;;;;;13.20;3.33;;;;;;;11.47;40.40;100045.06;7791944;32;40055;-86
2024/01/25 11:58:33;;;;;;;9.48;2.30;;;;;;;11.76;40.62;100048.09;7791458;32;38234;-86
2024/01/25 12:02:52;;;;;;;10.45;3.08;;;;;;;12.27;39.29;100035.50;7791753;32;36908;-85
2024/01/25 12:07:09;;;;;;;6.57;2.72;;;;;;;12.09;38.79;100045.91;7791657;32;39158;-85
2024/01/25 12:11:27;;;;;;;10.65;2.80;;;;;;;11.37;39.78;100045.06;7777743;32;39944;-85
2024/01/25 12:15:43;;;;;;;12.00;3.03;;;;;;;11.35;40.88;100036.31;7791407;32;37981;-85
2024/01/25 12:20:00;;;;;;;7.62;2.70;;;;;;;11.47;40.28;100064.19;7791244;32;37541;-86
2024/01/25 12:24:17;;;;;;;17.30;4.37;;;;;;;10.81;41.38;100076.53;7791311;32;39164;-85
2024/01/25 12:28:34;;;;;;;9.25;2.70;;;;;;;10.38;42.05;100069.50;7791039;32;40829;-85
2024/01/25 12:32:50;;;;;;;14.65;3.58;;;;;;;10.76;41.89;100072.97;7791145;32;38020;-85
2024/01/25 12:37:07;;;;;;;9.45;3.55;;;;;;;10.14;42.55;100081.59;7790848;32;37207;-85
2024/01/25 12:41:24;;;;;;;12.35;3.30;;;;;;;9.44;43.04;100074.47;7790716;32;39135;-85
2024/01/25 12:45:40;;;;;;;16.55;3.83;;;;;;;10.04;42.98;100070.63;7790712;32;40782;-85
2024/01/25 12:49:57;;;;;;;10.68;2.95;;;;;;;9.63;43.93;100072.19;7790446;32;38052;-85
2024/01/25 12:54:14;;;;;;;9.75;3.15;;;;;;;9.78;43.84;100078.59;7790512;32;37049;-85
2024/01/25 12:58:30;;;;;;;9.75;3.03;;;;;;;9.50;43.42;100081.59;7776557;32;39961;-87
2024/01/25 13:02:47;;;;;;;9.30;3.10;;;;;;;9.80;43.34;100064.72;7790159;32;40797;-86
2024/01/25 13:07:03;;;;;;;11.38;3.15;;;;;;;9.69;44.24;100072.00;7790389;32;37933;-86
2024/01/25 13:11:20;;;;;;;10.65;2.90;;;;;;;10.31;42.33;100056.06;7793967;32;37541;-86
2024/01/25 13:15:36;;;;;;;9.00;3.20;;;;;;;9.99;42.60;100056.97;7793946;32;39184;-85
2024/01/25 13:19:52;;;;;;;8.18;2.70;;;;;;;10.08;43.03;100047.22;7793662;32;40851;-86
2024/01/25 13:24:09;;;;;;;10.38;2.97;;;;;;;10.42;42.29;100049.66;7793710;32;37926;-84
2024/01/25 13:28:25;;;;;;;14.60;2.75;;;;;;;11.04;41.58;100042.53;7793750;32;37176;-85
2024/01/25 13:32:41;;;;;;;9.95;2.90;;;;;;;10.92;41.28;100047.41;7793791;32;38921;-85
2024/01/25 13:36:58;;;;;;;8.35;2.70;;;;;;;10.36;42.76;100047.97;7793674;32;39719;-85
2024/01/25 13:41:14;;;;;;;5.93;2.45;;;;;;;11.09;41.33;100047.19;7793544;32;38036;-85
2024/01/25 13:45:30;;;;;;;7.50;2.70;;;;;;;11.90;39.56;100044.78;7793578;32;36920;-86
2024/01/25 13:49:47;;;;;;;6.85;2.92;;;;;;;12.10;38.47;100050.25;7793617;32;39787;-85
2024/01/25 13:54:03;;;;;;;11.12;2.42;;;;;;;11.98;38.74;100050.56;7793544;32;39753;-85
2024/01/25 13:58:20;;;;;;;6.85;2.55;;;;;;;12.39;38.11;100050.47;7793244;32;38461;-85
2024/01/25 14:02:36;;;;;;;10.20;2.85;;;;;;;12.33;37.86;100048.03;7768135;32;36998;-85
2024/01/25 14:06:52;;;;;;;5.97;2.80;;;;;;;12.58;37.39;100036.22;7765164;32;40047;-86
2024/01/25 14:11:10;;;;;;;11.63;2.65;;;;;;;11.97;38.22;100059.84;7760985;32;40805;-85
2024/01/25 14:15:27;;;;;;;15.95;5.72;;;;;;;10.71;40.36;100060.97;7764745;32;36972;-85
2024/01/25 14:19:44;;;;;;;9.13;3.50;;;;;;;10.11;41.99;100071.22;7764849;32;37789;-85
2024/01/25 14:24:01;;;;;;;6.65;2.90;;;;;;;10.25;41.91;100085.22;7760828;32;39157;-86
2024/01/25 14:28:17;;;;;;;9.73;3.10;;;;;;;10.17;42.39;100088.41;7764960;32;39954;-86
2024/01/25 14:32:34;;;;;;;11.38;3.40;;;;;;;10.03;42.19;100085.31;7764893;32;38792;-86
2024/01/25 14:36:51;;;;;;;15.27;3.22;;;;;;;10.03;42.40;100100.84;7764884;32;37713;-85
2024/01/25 14:41:11;;;;;;;9.60;3.10;;;;;;;9.86;42.85;100107.25;7765177;32;39243;-86
2024/01/25 14:45:29;;;;;;;9.23;3.17;;;;;;;10.22;42.24;100107.53;7760799;32;40058;-87
2024/01/25 14:49:46;;;;;;;11.45;2.83;;;;;;;9.61;43.84;100104.28;7765336;32;38019;-85
2024/01/25 14:54:03;;;;;;;14.23;3.22;;;;;;;10.03;42.70;100106.28;7765291;32;36992;-85
2024/01/25 14:58:24;;;;;;;8.70;2.83;;;;;;;9.85;43.23;100118.37;7764812;32;38868;-85
2024/01/25 15:02:41;;;;;;;10.68;3.22;;;;;;;9.99;42.61;100108.72;7765628;32;38827;-85
2024/01/25 15:06:57;;;;;;;13.25;2.90;;;;;;;10.73;41.58;100117.97;7764439;32;37984;-85
2024/01/25 15:11:13;;;;;;;10.65;3.03;;;;;;;11.18;39.52;100119.25;7765265;32;37562;-85
2024/01/25 15:15:30;;;;;;;9.00;2.87;;;;;;;11.48;39.17;100123.16;7764574;32;39078;-85
2024/01/25 15:19:47;;;;;;;9.88;2.95;;;;;;;11.79;38.29;100128.66;7765603;32;41530;-85
2024/01/25 15:24:04;;;;;;;8.52;2.70;;;;;;;11.11;39.15;100139.66;7764580;32;37911;-84
2024/01/25 15:28:21;;;;;;;8.35;2.92;;;;;;;10.77;40.21;100140.06;7750417;32;36862;-85
2024/01/25 15:32:39;;;;;;;13.05;3.53;;;;;;;10.08;41.81;100128.94;7764571;32;39229;-84
2024/01/25 15:36:55;;;;;;;9.48;3.60;;;;;;;9.77;42.42;100155.91;7764061;32;38986;-85
2024/01/25 15:41:12;;;;;;;11.60;3.50;;;;;;;9.72;42.35;100161.28;7764968;32;38737;-85
2024/01/25 15:45:28;;;;;;;12.10;4.22;;;;;;;9.72;42.23;100161.28;7750547;32;36912;-86
2024/01/25 15:49:45;;;;;;;10.52;3.45;;;;;;;9.66;42.67;100172.37;7750642;32;39296;-85
2024/01/25 15:54:02;;;;;;;7.93;4.32;;;;;;;9.47;43.03;100155.59;7764599;32;40547;-85
2024/01/25 15:58:18;;;;;;;11.93;3.20;;;;;;;9.48;42.79;100166.22;7763733;32;37936;-86
2024/01/25 16:02:35;;;;;;;7.60;3.35;;;;;;;9.01;44.27;100161.31;7764441;32;37004;-85
2024/01/25 16:06:51;;;;;;;15.40;3.58;;;;;;;9.31;43.59;100163.59;7764006;32;39268;-85
2024/01/25 16:11:08;;;;;;;7.40;2.67;;;;;;;9.05;44.21;100150.75;7764013;32;39606;-85
2024/01/25 16:15:27;;;;;;;9.73;3.67;;;;;;;8.54;45.13;100149.00;7763726;32;38759;-86
2024/01/25 16:19:44;;;;;;;11.23;4.00;;;;;;;7.90;46.77;100162.87;7763624;32;37733;-85
2024/01/25 16:24:01;;;;;;;8.10;3.00;;;;;;;8.44;45.82;100154.28;7763838;32;39213;-85
2024/01/25 16:28:17;;;;;;;8.50;3.30;;;;;;;8.72;45.10;100152.50;7762967;32;40033;-86
2024/01/25 16:32:34;;;;;;;14.68;4.47;;;;;;;7.94;46.63;100157.78;7763844;32;37561;-86
2024/01/25 16:36:51;;;;;;;7.60;3.60;;;;;;;8.11;46.26;100150.47;7763265;32;37032;-86
2024/01/25 16:41:08;;;;;;;10.45;4.35;;;;;;;7.80;46.94;100144.53;7763372;32;39296;-86
2024/01/25 16:45:25;;;;;;;12.20;3.92;;;;;;;8.05;46.54;100151.44;7765911;32;40828;-85
2024/01/25 16:49:42;;;;;;;14.20;3.50;;;;;;;7.63;47.78;100154.53;7766137;32;37982;-86
2024/01/25 16:53:59;;;;;;;10.35;3.50;;;;;;;7.92;47.10;100159.91;7766787;32;37038;-88
2024/01/25 16:58:15;;;;;;;8.48;3.25;;;;;;;7.59;47.83;100158.78;7765586;32;39944;-83
2024/01/25 17:02:32;;;;;;;8.50;3.30;;;;;;;7.36;48.26;100154.28;7766572;32;39782;-83
2024/01/25 17:06:48;;;;;;;7.62;3.22;;;;;;;7.37;48.11;100151.31;7766811;32;37937;-83
2024/01/25 17:11:05;;;;;;;18.08;4.75;;;;;;;7.50;48.25;100140.19;7766890;32;37644;-84
2024/01/25 17:15:21;;;;;;;10.38;3.70;;;;;;;7.85;47.24;100136.47;7766847;32;40055;-84
2024/01/25 17:19:37;;;;;;;12.40;4.40;;;;;;;8.02;47.01;100127.50;7766763;32;40641;-84
2024/01/25 17:23:54;;;;;;;11.90;5.30;;;;;;;7.84;47.55;100128.56;7765346;32;38588;-84
2024/01/25 17:28:11;;;;;;;10.38;4.35;;;;;;;7.80;47.69;100122.00;7766288;32;37716;-84
2024/01/25 17:32:27;;;;;;;12.90;4.57;;;;;;;7.95;47.29;100143.13;7766574;32;39393;-83
2024/01/25 17:36:44;;;;;;;11.07;4.07;;;;;;;7.64;48.23;100150.72;7766500;32;39665;-84
2024/01/25 17:41:00;;;;;;;9.10;3.80;;;;;;;7.65;48.26;100144.25;7766405;32;38772;-83
2024/01/25 17:45:17;;;;;;;7.10;3.47;;;;;;;7.66;48.24;100159.47;7766367;32;37116;-84
2024/01/25 17:49:33;;;;;;;10.00;3.55;;;;;;;7.59;48.12;100165.03;7766627;32;40001;-84
2024/01/25 17:53:50;;;;;;;12.88;3.80;;;;;;;7.48;48.28;100174.84;7765920;32;39980;-84
2024/01/25 17:58:07;;;;;;;11.02;3.35;;;;;;;7.36;48.62;100176.78;7766210;32;37773;-84
2024/01/25 18:02:24;;;;;;;12.55;3.42;;;;;;;7.60;48.33;100179.41;7766222;32;36764;-84
2024/01/25 18:06:40;;;;;;;10.50;3.08;;;;;;;7.86;47.71;100175.28;7766176;32;39289;-84
2024/01/25 18:10:58;;;;;;;8.48;2.97;;;;;;;7.63;47.98;100185.19;7766053;32;40758;-85
2024/01/25 18:15:17;;;;;;;14.30;3.90;;;;;;;7.31;49.30;100190.25;7766013;32;37927;-85
2024/01/25 18:19:35;;;;;;;12.13;3.45;;;;;;;7.25;49.18;100196.66;7766234;32;37697;-83
2024/01/25 18:23:52;;;;;;;11.80;3.10;;;;;;;7.19;49.56;100198.41;7765847;32;39304;-83
2024/01/25 18:28:09;;;;;;;7.43;3.05;;;;;;;7.51;48.75;100206.13;7765939;32;39822;-83
2024/01/25 18:32:25;;;;;;;11.05;3.87;;;;;;;7.44;48.83;100211.69;7765828;32;38109;-84
2024/01/25 18:36:43;;;;;;;13.80;3.40;;;;;;;7.69;48.47;100213.22;7765826;32;36668;-84
2024/01/25 18:41:00;;;;;;;9.23;3.83;;;;;;;8.00;47.44;100216.53;7765946;32;38814;-84
2024/01/25 18:45:16;;;;;;;7.78;3.78;;;;;;;7.75;48.15;100231.28;7765562;32;40838;-84
2024/01/25 18:49:32;;;;;;;6.43;3.37;;;;;;;7.76;47.99;100232.09;7765583;32;38107;-84
2024/01/25 18:53:49;;;;;;;7.53;3.33;;;;;;;7.79;48.18;100235.16;7765649;32;37125;-84
2024/01/25 18:58:06;;;;;;;12.55;3.20;;;;;;;7.53;48.61;100247.41;7765596;32;38915;-84
2024/01/25 19:02:23;;;;;;;10.07;3.40;;;;;;;7.86;47.85;100244.00;7782968;32;40007;-86
2024/01/25 19:06:41;;;;;;;11.60;4.05;;;;;;;7.66;48.16;100240.87;7786693;32;37898;-84
2024/01/25 19:10:58;;;;;;;13.48;3.12;;;;;;;8.01;47.42;100229.84;7752955;32;37147;-86
2024/01/25 19:15:14;;;;;;;13.93;3.35;;;;;;;8.02;47.35;100227.94;7765456;32;40097;-86
2024/01/25 19:19:31;;;;;;;10.43;3.33;;;;;;;8.00;47.81;100225.50;7765284;32;39929;-85
2024/01/25 19:23:47;;;;;;;9.82;3.20;;;;;;;7.44;49.01;100227.97;7756774;32;38634;-84
2024/01/25 19:28:04;;;;;;;9.68;3.35;;;;;;;7.48;48.95;100231.81;7739244;32;36611;-84
2024/01/25 19:32:21;;;;;;;9.70;3.85;;;;;;;7.74;48.26;100235.03;7756030;32;40020;-84
2024/01/25 19:36:37;;;;;;;8.23;3.22;;;;;;;7.43;49.33;100234.44;7764196;32;39928;-85
2024/01/25 19:40:54;;;;;;;6.43;2.92;;;;;;;7.67;48.67;100232.47;7778971;32;39178;-84
2024/01/25 19:45:10;;;;;;;10.75;3.50;;;;;;;7.30;49.95;100248.28;7789616;32;36999;-83
2024/01/25 19:49:28;;;;;;;13.73;4.43;;;;;;;7.55;49.33;100249.88;7786062;32;40023;-83
2024/01/25 19:53:44;;;;;;;7.55;3.70;;;;;;;7.05;50.17;100249.38;7764847;32;40086;-84
2024/01/25 19:58:01;;;;;;;7.95;3.30;;;;;;;7.22;50.33;100249.47;7773130;32;37830;-85
2024/01/25 20:02:19;;;;;;;10.15;4.15;;;;;;;7.74;49.19;100253.22;7790920;32;36590;-85
2024/01/25 20:06:40;;;;;;;7.15;3.42;;;;;;;7.67;49.09;100259.59;7783673;32;39969;-85